sensor_id;sensor_type;location;lat;lon;timestamp;P1;durP1;ratioP1;P2;durP2;ratioP2
75356;SDS011;63946;51.986;5.930;2022-12-07T07:06:46;5.07;;;1.48;;
75356;SDS011;63946;51.986;5.930;2022-12-07T07:15:11;4.28;;;1.58;;
75356;SDS011;63946;51.986;5.930;2022-12-07T07:17:59;8.13;;;1.80;;
75356;SDS011;63946;51.986;5.930;2022-12-07T07:20:56;6.75;;;1.60;;
75356;SDS011;63946;51.986;5.930;2022-12-07T07:23:48;5.30;;;1.60;;
75356;SDS011;63946;51.986;5.930;2022-12-07T07:26:46;5.28;;;1.50;;
75356;SDS011;63946;51.986;5.930;2022-12-07T07:29:33;4.90;;;1.85;;
75356;SDS011;63946;51.986;5.930;2022-12-07T07:32:59;5.75;;;1.52;;
75356;SDS011;63946;51.986;5.930;2022-12-07T07:35:57;3.47;;;1.52;;
75356;SDS011;63946;51.986;5.930;2022-12-07T07:38:40;5.13;;;1.45;;
75356;SDS011;63946;51.986;5.930;2022-12-07T07:41:13;6.30;;;1.88;;
75356;SDS011;63946;51.986;5.930;2022-12-07T07:43:53;3.20;;;1.75;;
75356;SDS011;63946;51.986;5.930;2022-12-07T07:46:44;8.15;;;2.13;;
75356;SDS011;63946;51.986;5.930;2022-12-07T07:49:45;4.35;;;1.92;;
75356;SDS011;63946;51.986;5.930;2022-12-07T07:59:48;6.43;;;1.67;;
75356;SDS011;63946;51.986;5.930;2022-12-07T08:03:16;4.82;;;1.90;;
75356;SDS011;63946;51.986;5.930;2022-12-07T08:06:43;3.38;;;1.95;;
75356;SDS011;63946;51.986;5.930;2022-12-07T08:09:23;5.38;;;2.30;;
75356;SDS011;63946;51.986;5.930;2022-12-07T08:15:30;10.30;;;3.00;;
75356;SDS011;63946;51.986;5.930;2022-12-07T08:21:49;7.90;;;3.05;;
75356;SDS011;63946;51.986;5.930;2022-12-07T08:27:59;7.70;;;3.85;;
75356;SDS011;63946;51.986;5.930;2022-12-07T08:31:23;7.10;;;3.22;;
75356;SDS011;63946;51.986;5.930;2022-12-07T08:34:10;7.43;;;2.10;;
75356;SDS011;63946;51.986;5.930;2022-12-07T08:37:15;5.47;;;1.75;;
75356;SDS011;63946;51.986;5.930;2022-12-07T08:40:31;6.43;;;1.73;;
75356;SDS011;63946;51.986;5.930;2022-12-07T08:43:18;9.02;;;1.60;;
75356;SDS011;63946;51.986;5.930;2022-12-07T08:46:09;4.88;;;1.40;;
75356;SDS011;63946;51.986;5.930;2022-12-07T08:48:56;4.43;;;1.52;;
75356;SDS011;63946;51.986;5.930;2022-12-07T08:51:50;6.20;;;1.60;;
75356;SDS011;63946;51.986;5.930;2022-12-07T08:54:28;5.05;;;1.50;;
75356;SDS011;63946;51.986;5.930;2022-12-07T09:05:47;4.05;;;1.67;;
75356;SDS011;63946;51.986;5.930;2022-12-07T09:40:49;5.60;;;2.67;;
75356;SDS011;63946;51.986;5.930;2022-12-07T09:51:00;3.72;;;1.60;;
75356;SDS011;63946;51.986;5.930;2022-12-07T09:54:58;4.78;;;1.85;;
75356;SDS011;63946;51.986;5.930;2022-12-07T09:58:19;4.72;;;1.30;;
75356;SDS011;63946;51.986;5.930;2022-12-07T10:12:06;4.80;;;2.13;;
75356;SDS011;63946;51.986;5.930;2022-12-07T10:25:17;3.58;;;1.52;;
75356;SDS011;63946;51.986;5.930;2022-12-07T10:28:15;5.60;;;2.22;;
75356;SDS011;63946;51.986;5.930;2022-12-07T10:31:31;6.32;;;2.53;;
75356;SDS011;63946;51.986;5.930;2022-12-07T10:34:51;5.07;;;2.22;;
75356;SDS011;63946;51.986;5.930;2022-12-07T10:37:45;4.65;;;1.73;;
75356;SDS011;63946;51.986;5.930;2022-12-07T10:40:36;3.25;;;1.65;;
75356;SDS011;63946;51.986;5.930;2022-12-07T10:43:25;4.40;;;1.83;;
75356;SDS011;63946;51.986;5.930;2022-12-07T10:46:09;4.68;;;1.85;;
75356;SDS011;63946;51.986;5.930;2022-12-07T10:55:29;3.78;;;1.70;;
75356;SDS011;63946;51.986;5.930;2022-12-07T11:27:37;3.33;;;1.27;;
75356;SDS011;63946;51.986;5.930;2022-12-07T11:37:25;3.90;;;1.15;;
75356;SDS011;63946;51.986;5.930;2022-12-07T11:40:27;2.45;;;1.30;;
75356;SDS011;63946;51.986;5.930;2022-12-07T11:56:25;5.03;;;1.52;;
75356;SDS011;63946;51.986;5.930;2022-12-07T11:59:21;7.45;;;1.98;;
75356;SDS011;63946;51.986;5.930;2022-12-07T12:02:07;6.93;;;2.22;;
75356;SDS011;63946;51.986;5.930;2022-12-07T12:08:18;4.47;;;1.35;;
75356;SDS011;63946;51.986;5.930;2022-12-07T12:11:16;4.28;;;1.38;;
75356;SDS011;63946;51.986;5.930;2022-12-07T12:18:22;3.78;;;1.30;;
75356;SDS011;63946;51.986;5.930;2022-12-07T12:21:25;3.17;;;0.90;;
75356;SDS011;63946;51.986;5.930;2022-12-07T12:27:36;4.53;;;1.30;;
75356;SDS011;63946;51.986;5.930;2022-12-07T12:30:29;7.25;;;1.60;;
75356;SDS011;63946;51.986;5.930;2022-12-07T12:33:48;5.03;;;1.23;;
75356;SDS011;63946;51.986;5.930;2022-12-07T12:36:57;4.20;;;1.67;;
75356;SDS011;63946;51.986;5.930;2022-12-07T12:39:35;4.88;;;1.60;;
75356;SDS011;63946;51.986;5.930;2022-12-07T12:42:42;4.30;;;1.65;;
75356;SDS011;63946;51.986;5.930;2022-12-07T12:45:39;6.57;;;1.70;;
75356;SDS011;63946;51.986;5.930;2022-12-07T12:48:29;4.55;;;1.85;;
75356;SDS011;63946;51.986;5.930;2022-12-07T12:51:35;3.60;;;1.45;;
75356;SDS011;63946;51.986;5.930;2022-12-07T12:54:11;4.20;;;1.70;;
75356;SDS011;63946;51.986;5.930;2022-12-07T13:04:59;3.95;;;1.23;;
75356;SDS011;63946;51.986;5.930;2022-12-07T13:10:25;4.50;;;1.33;;
75356;SDS011;63946;51.986;5.930;2022-12-07T13:13:31;4.32;;;1.70;;
75356;SDS011;63946;51.986;5.930;2022-12-07T13:18:38;5.38;;;1.38;;
75356;SDS011;63946;51.986;5.930;2022-12-07T13:26:17;4.57;;;1.50;;
75356;SDS011;63946;51.986;5.930;2022-12-07T13:29:07;5.28;;;1.75;;
75356;SDS011;63946;51.986;5.930;2022-12-07T13:31:50;4.07;;;1.77;;
75356;SDS011;63946;51.986;5.930;2022-12-07T13:37:24;5.13;;;2.00;;
75356;SDS011;63946;51.986;5.930;2022-12-07T13:39:59;4.72;;;1.73;;
75356;SDS011;63946;51.986;5.930;2022-12-07T13:42:44;3.03;;;1.30;;
75356;SDS011;63946;51.986;5.930;2022-12-07T13:45:23;6.10;;;2.38;;
75356;SDS011;63946;51.986;5.930;2022-12-07T13:48:15;4.72;;;1.70;;
75356;SDS011;63946;51.986;5.930;2022-12-07T13:50:59;5.97;;;1.63;;
75356;SDS011;63946;51.986;5.930;2022-12-07T13:53:30;4.90;;;1.83;;
75356;SDS011;63946;51.986;5.930;2022-12-07T13:56:01;7.28;;;1.65;;
75356;SDS011;63946;51.986;5.930;2022-12-07T13:58:30;6.95;;;1.42;;
75356;SDS011;63946;51.986;5.930;2022-12-07T14:01:01;4.75;;;1.27;;
75356;SDS011;63946;51.986;5.930;2022-12-07T14:03:32;5.25;;;1.30;;
75356;SDS011;63946;51.986;5.930;2022-12-07T14:06:11;3.05;;;1.30;;
75356;SDS011;63946;51.986;5.930;2022-12-07T14:08:47;4.20;;;1.35;;
75356;SDS011;63946;51.986;5.930;2022-12-07T14:11:17;4.20;;;1.50;;
75356;SDS011;63946;51.986;5.930;2022-12-07T14:13:55;3.83;;;1.35;;
75356;SDS011;63946;51.986;5.930;2022-12-07T14:16:33;4.63;;;1.00;;
75356;SDS011;63946;51.986;5.930;2022-12-07T14:19:05;5.68;;;1.20;;
75356;SDS011;63946;51.986;5.930;2022-12-07T14:22:07;4.57;;;1.67;;
75356;SDS011;63946;51.986;5.930;2022-12-07T14:24:43;2.75;;;0.80;;
75356;SDS011;63946;51.986;5.930;2022-12-07T14:27:22;2.40;;;0.85;;
75356;SDS011;63946;51.986;5.930;2022-12-07T14:32:26;2.67;;;0.90;;
75356;SDS011;63946;51.986;5.930;2022-12-07T14:34:59;3.22;;;0.95;;
75356;SDS011;63946;51.986;5.930;2022-12-07T14:37:40;3.83;;;1.20;;
75356;SDS011;63946;51.986;5.930;2022-12-07T14:40:23;4.43;;;1.20;;
75356;SDS011;63946;51.986;5.930;2022-12-07T14:43:14;1.83;;;1.08;;
75356;SDS011;63946;51.986;5.930;2022-12-07T14:45:44;2.67;;;0.90;;
75356;SDS011;63946;51.986;5.930;2022-12-07T14:48:14;5.70;;;1.30;;
75356;SDS011;63946;51.986;5.930;2022-12-07T14:50:44;3.53;;;1.25;;
75356;SDS011;63946;51.986;5.930;2022-12-07T14:53:21;2.90;;;1.30;;
75356;SDS011;63946;51.986;5.930;2022-12-07T14:55:56;3.50;;;1.40;;
75356;SDS011;63946;51.986;5.930;2022-12-07T14:58:24;3.88;;;1.42;;
75356;SDS011;63946;51.986;5.930;2022-12-07T15:00:53;3.95;;;1.52;;
75356;SDS011;63946;51.986;5.930;2022-12-07T15:03:22;5.72;;;2.17;;
75356;SDS011;63946;51.986;5.930;2022-12-07T15:05:51;6.90;;;2.10;;
75356;SDS011;63946;51.986;5.930;2022-12-07T15:08:20;4.72;;;1.70;;
75356;SDS011;63946;51.986;5.930;2022-12-07T15:10:48;3.15;;;1.60;;
75356;SDS011;63946;51.986;5.930;2022-12-07T15:13:18;5.45;;;1.98;;
75356;SDS011;63946;51.986;5.930;2022-12-07T15:15:59;3.25;;;1.92;;
75356;SDS011;63946;51.986;5.930;2022-12-07T15:18:28;2.15;;;1.27;;
75356;SDS011;63946;51.986;5.930;2022-12-07T15:20:57;2.78;;;1.33;;
75356;SDS011;63946;51.986;5.930;2022-12-07T15:23:25;5.25;;;1.45;;
75356;SDS011;63946;51.986;5.930;2022-12-07T15:25:54;3.88;;;1.77;;
75356;SDS011;63946;51.986;5.930;2022-12-07T15:28:23;4.53;;;1.73;;
75356;SDS011;63946;51.986;5.930;2022-12-07T15:30:52;6.05;;;1.80;;
75356;SDS011;63946;51.986;5.930;2022-12-07T15:33:21;4.32;;;1.40;;
75356;SDS011;63946;51.986;5.930;2022-12-07T15:35:50;4.05;;;1.85;;
75356;SDS011;63946;51.986;5.930;2022-12-07T15:38:19;2.10;;;1.25;;
75356;SDS011;63946;51.986;5.930;2022-12-07T15:40:52;3.40;;;1.73;;
75356;SDS011;63946;51.986;5.930;2022-12-07T15:43:21;4.75;;;1.85;;
75356;SDS011;63946;51.986;5.930;2022-12-07T15:46:03;4.68;;;1.80;;
75356;SDS011;63946;51.986;5.930;2022-12-07T15:48:36;6.03;;;1.92;;
75356;SDS011;63946;51.986;5.930;2022-12-07T15:51:05;5.07;;;2.15;;
75356;SDS011;63946;51.986;5.930;2022-12-07T15:53:35;3.92;;;1.75;;
75356;SDS011;63946;51.986;5.930;2022-12-07T15:56:07;3.33;;;1.83;;
75356;SDS011;63946;51.986;5.930;2022-12-07T15:58:38;4.28;;;2.58;;
75356;SDS011;63946;51.986;5.930;2022-12-07T16:01:12;3.65;;;2.45;;
75356;SDS011;63946;51.986;5.930;2022-12-07T16:03:43;7.13;;;3.08;;
75356;SDS011;63946;51.986;5.930;2022-12-07T16:06:15;5.95;;;2.10;;
75356;SDS011;63946;51.986;5.930;2022-12-07T16:08:45;4.18;;;1.98;;
75356;SDS011;63946;51.986;5.930;2022-12-07T16:11:17;5.95;;;2.90;;
75356;SDS011;63946;51.986;5.930;2022-12-07T16:13:46;7.38;;;3.10;;
75356;SDS011;63946;51.986;5.930;2022-12-07T16:16:18;5.68;;;3.05;;
75356;SDS011;63946;51.986;5.930;2022-12-07T16:18:48;6.65;;;3.33;;
75356;SDS011;63946;51.986;5.930;2022-12-07T16:21:20;6.50;;;3.42;;
75356;SDS011;63946;51.986;5.930;2022-12-07T16:23:56;5.43;;;3.25;;
75356;SDS011;63946;51.986;5.930;2022-12-07T16:26:26;5.45;;;3.83;;
75356;SDS011;63946;51.986;5.930;2022-12-07T16:28:58;8.13;;;3.67;;
75356;SDS011;63946;51.986;5.930;2022-12-07T16:31:29;5.70;;;3.33;;
75356;SDS011;63946;51.986;5.930;2022-12-07T16:33:59;5.50;;;3.00;;
75356;SDS011;63946;51.986;5.930;2022-12-07T16:36:28;7.00;;;4.00;;
75356;SDS011;63946;51.986;5.930;2022-12-07T16:39:00;5.22;;;2.17;;
75356;SDS011;63946;51.986;5.930;2022-12-07T16:41:30;4.40;;;1.90;;
75356;SDS011;63946;51.986;5.930;2022-12-07T16:44:06;5.07;;;1.98;;
75356;SDS011;63946;51.986;5.930;2022-12-07T16:46:38;4.00;;;2.30;;
75356;SDS011;63946;51.986;5.930;2022-12-07T16:49:13;4.22;;;2.08;;
75356;SDS011;63946;51.986;5.930;2022-12-07T16:54:12;6.15;;;2.60;;
75356;SDS011;63946;51.986;5.930;2022-12-07T16:56:43;6.00;;;2.47;;
75356;SDS011;63946;51.986;5.930;2022-12-07T16:59:15;5.65;;;2.05;;
75356;SDS011;63946;51.986;5.930;2022-12-07T17:01:44;4.22;;;1.85;;
75356;SDS011;63946;51.986;5.930;2022-12-07T17:04:18;5.03;;;2.22;;
75356;SDS011;63946;51.986;5.930;2022-12-07T17:06:47;5.82;;;2.08;;
75356;SDS011;63946;51.986;5.930;2022-12-07T17:09:16;4.45;;;2.40;;
75356;SDS011;63946;51.986;5.930;2022-12-07T17:11:45;5.25;;;2.10;;
75356;SDS011;63946;51.986;5.930;2022-12-07T17:14:17;5.68;;;1.90;;
75356;SDS011;63946;51.986;5.930;2022-12-07T17:19:30;5.25;;;2.00;;
75356;SDS011;63946;51.986;5.930;2022-12-07T17:21:59;4.55;;;2.13;;
75356;SDS011;63946;51.986;5.930;2022-12-07T17:24:28;6.10;;;2.13;;
75356;SDS011;63946;51.986;5.930;2022-12-07T17:26:57;7.15;;;2.13;;
75356;SDS011;63946;51.986;5.930;2022-12-07T17:29:28;4.55;;;2.38;;
75356;SDS011;63946;51.986;5.930;2022-12-07T17:31:57;5.40;;;3.30;;
75356;SDS011;63946;51.986;5.930;2022-12-07T17:34:26;6.25;;;2.88;;
75356;SDS011;63946;51.986;5.930;2022-12-07T17:36:55;3.88;;;2.45;;
75356;SDS011;63946;51.986;5.930;2022-12-07T17:39:24;7.45;;;3.38;;
75356;SDS011;63946;51.986;5.930;2022-12-07T17:41:53;4.80;;;2.30;;
75356;SDS011;63946;51.986;5.930;2022-12-07T17:44:34;4.93;;;3.00;;
75356;SDS011;63946;51.986;5.930;2022-12-07T17:47:03;6.57;;;3.17;;
75356;SDS011;63946;51.986;5.930;2022-12-07T17:49:35;8.48;;;3.95;;
75356;SDS011;63946;51.986;5.930;2022-12-07T17:52:04;6.55;;;3.05;;
75356;SDS011;63946;51.986;5.930;2022-12-07T17:54:46;8.90;;;3.28;;
75356;SDS011;63946;51.986;5.930;2022-12-07T17:57:20;4.80;;;3.10;;
75356;SDS011;63946;51.986;5.930;2022-12-07T17:59:49;5.60;;;3.03;;
75356;SDS011;63946;51.986;5.930;2022-12-07T18:02:19;9.13;;;3.30;;
75356;SDS011;63946;51.986;5.930;2022-12-07T18:04:48;4.43;;;2.72;;
75356;SDS011;63946;51.986;5.930;2022-12-07T18:07:20;6.38;;;2.97;;
75356;SDS011;63946;51.986;5.930;2022-12-07T18:09:49;4.85;;;2.92;;
75356;SDS011;63946;51.986;5.930;2022-12-07T18:12:17;5.93;;;3.42;;
75356;SDS011;63946;51.986;5.930;2022-12-07T18:14:46;5.55;;;3.15;;
75356;SDS011;63946;51.986;5.930;2022-12-07T18:17:18;5.97;;;2.97;;
75356;SDS011;63946;51.986;5.930;2022-12-07T18:19:47;6.00;;;3.13;;
75356;SDS011;63946;51.986;5.930;2022-12-07T18:22:22;5.55;;;3.25;;
75356;SDS011;63946;51.986;5.930;2022-12-07T18:24:51;7.15;;;3.40;;
75356;SDS011;63946;51.986;5.930;2022-12-07T18:27:20;6.45;;;3.78;;
75356;SDS011;63946;51.986;5.930;2022-12-07T18:29:49;7.75;;;3.72;;
75356;SDS011;63946;51.986;5.930;2022-12-07T18:32:18;5.72;;;4.10;;
75356;SDS011;63946;51.986;5.930;2022-12-07T18:34:47;9.60;;;5.18;;
75356;SDS011;63946;51.986;5.930;2022-12-07T18:37:16;10.60;;;4.18;;
75356;SDS011;63946;51.986;5.930;2022-12-07T18:39:45;7.53;;;4.72;;
75356;SDS011;63946;51.986;5.930;2022-12-07T18:42:14;7.70;;;4.10;;
75356;SDS011;63946;51.986;5.930;2022-12-07T18:44:46;6.18;;;3.90;;
75356;SDS011;63946;51.986;5.930;2022-12-07T18:47:20;7.72;;;4.05;;
75356;SDS011;63946;51.986;5.930;2022-12-07T18:49:49;9.85;;;4.18;;
75356;SDS011;63946;51.986;5.930;2022-12-07T18:52:17;9.45;;;4.63;;
75356;SDS011;63946;51.986;5.930;2022-12-07T18:54:46;7.55;;;3.63;;
75356;SDS011;63946;51.986;5.930;2022-12-07T18:57:18;9.65;;;4.95;;
75356;SDS011;63946;51.986;5.930;2022-12-07T18:59:52;9.15;;;4.57;;
75356;SDS011;63946;51.986;5.930;2022-12-07T19:04:52;12.02;;;5.35;;
75356;SDS011;63946;51.986;5.930;2022-12-07T19:07:21;7.45;;;3.95;;
75356;SDS011;63946;51.986;5.930;2022-12-07T19:09:53;8.30;;;4.20;;
75356;SDS011;63946;51.986;5.930;2022-12-07T19:12:22;6.93;;;4.80;;
75356;SDS011;63946;51.986;5.930;2022-12-07T19:14:51;9.75;;;4.53;;
75356;SDS011;63946;51.986;5.930;2022-12-07T19:17:20;9.80;;;4.10;;
75356;SDS011;63946;51.986;5.930;2022-12-07T19:19:49;6.50;;;3.95;;
75356;SDS011;63946;51.986;5.930;2022-12-07T19:22:19;5.25;;;3.47;;
75356;SDS011;63946;51.986;5.930;2022-12-07T19:24:50;5.25;;;3.22;;
75356;SDS011;63946;51.986;5.930;2022-12-07T19:27:21;4.20;;;3.25;;
75356;SDS011;63946;51.986;5.930;2022-12-07T19:29:51;6.28;;;3.08;;
75356;SDS011;63946;51.986;5.930;2022-12-07T19:32:21;4.45;;;3.00;;
75356;SDS011;63946;51.986;5.930;2022-12-07T19:34:49;5.35;;;2.47;;
75356;SDS011;63946;51.986;5.930;2022-12-07T19:37:20;5.07;;;3.13;;
75356;SDS011;63946;51.986;5.930;2022-12-07T19:39:49;5.97;;;2.88;;
75356;SDS011;63946;51.986;5.930;2022-12-07T19:42:18;5.13;;;2.60;;
75356;SDS011;63946;51.986;5.930;2022-12-07T19:44:47;5.75;;;2.83;;
75356;SDS011;63946;51.986;5.930;2022-12-07T19:47:16;6.63;;;3.40;;
75356;SDS011;63946;51.986;5.930;2022-12-07T19:49:45;3.65;;;2.15;;
75356;SDS011;63946;51.986;5.930;2022-12-07T19:52:14;4.30;;;2.45;;
75356;SDS011;63946;51.986;5.930;2022-12-07T19:54:43;3.55;;;2.30;;
75356;SDS011;63946;51.986;5.930;2022-12-07T19:57:12;4.72;;;3.05;;
75356;SDS011;63946;51.986;5.930;2022-12-07T19:59:42;4.85;;;2.45;;
75356;SDS011;63946;51.986;5.930;2022-12-07T20:02:12;7.28;;;3.13;;
75356;SDS011;63946;51.986;5.930;2022-12-07T20:04:44;4.60;;;2.88;;
75356;SDS011;63946;51.986;5.930;2022-12-07T20:07:13;6.30;;;3.50;;
75356;SDS011;63946;51.986;5.930;2022-12-07T20:09:42;5.05;;;3.10;;
75356;SDS011;63946;51.986;5.930;2022-12-07T20:12:11;8.60;;;4.90;;
75356;SDS011;63946;51.986;5.930;2022-12-07T20:14:52;7.60;;;4.65;;
75356;SDS011;63946;51.986;5.930;2022-12-07T20:17:21;7.30;;;4.03;;
75356;SDS011;63946;51.986;5.930;2022-12-07T20:19:50;6.03;;;3.92;;
75356;SDS011;63946;51.986;5.930;2022-12-07T20:22:18;6.20;;;3.80;;
75356;SDS011;63946;51.986;5.930;2022-12-07T20:24:50;7.57;;;3.33;;
75356;SDS011;63946;51.986;5.930;2022-12-07T20:27:19;10.10;;;5.47;;
75356;SDS011;63946;51.986;5.930;2022-12-07T20:29:48;9.38;;;5.20;;
75356;SDS011;63946;51.986;5.930;2022-12-07T20:32:17;6.90;;;4.15;;
75356;SDS011;63946;51.986;5.930;2022-12-07T20:34:47;5.20;;;3.88;;
75356;SDS011;63946;51.986;5.930;2022-12-07T20:37:16;6.70;;;4.03;;
75356;SDS011;63946;51.986;5.930;2022-12-07T20:39:45;7.47;;;4.15;;
75356;SDS011;63946;51.986;5.930;2022-12-07T20:42:14;7.70;;;5.72;;
75356;SDS011;63946;51.986;5.930;2022-12-07T20:44:55;5.30;;;3.90;;
75356;SDS011;63946;51.986;5.930;2022-12-07T20:47:24;10.63;;;4.75;;
75356;SDS011;63946;51.986;5.930;2022-12-07T20:49:52;7.45;;;4.88;;
75356;SDS011;63946;51.986;5.930;2022-12-07T20:52:21;7.40;;;3.92;;
75356;SDS011;63946;51.986;5.930;2022-12-07T20:54:50;6.50;;;3.75;;
75356;SDS011;63946;51.986;5.930;2022-12-07T20:57:19;7.07;;;4.38;;
75356;SDS011;63946;51.986;5.930;2022-12-07T20:59:48;9.68;;;4.78;;
75356;SDS011;63946;51.986;5.930;2022-12-07T21:02:17;5.47;;;3.90;;
75356;SDS011;63946;51.986;5.930;2022-12-07T21:04:46;7.57;;;4.63;;
75356;SDS011;63946;51.986;5.930;2022-12-07T21:07:15;6.50;;;4.63;;
75356;SDS011;63946;51.986;5.930;2022-12-07T21:09:44;7.88;;;5.07;;
75356;SDS011;63946;51.986;5.930;2022-12-07T21:12:13;7.47;;;4.53;;
75356;SDS011;63946;51.986;5.930;2022-12-07T21:14:42;8.32;;;4.72;;
75356;SDS011;63946;51.986;5.930;2022-12-07T21:17:17;6.35;;;4.50;;
75356;SDS011;63946;51.986;5.930;2022-12-07T21:19:46;5.32;;;3.38;;
75356;SDS011;63946;51.986;5.930;2022-12-07T21:22:15;8.55;;;4.82;;
75356;SDS011;63946;51.986;5.930;2022-12-07T21:24:46;7.90;;;3.80;;
75356;SDS011;63946;51.986;5.930;2022-12-07T21:27:15;6.72;;;3.90;;
75356;SDS011;63946;51.986;5.930;2022-12-07T21:29:43;6.25;;;4.32;;
75356;SDS011;63946;51.986;5.930;2022-12-07T21:32:13;7.25;;;3.92;;
75356;SDS011;63946;51.986;5.930;2022-12-07T21:34:45;6.45;;;4.03;;
75356;SDS011;63946;51.986;5.930;2022-12-07T21:37:13;6.95;;;4.05;;
75356;SDS011;63946;51.986;5.930;2022-12-07T21:39:45;9.38;;;4.30;;
75356;SDS011;63946;51.986;5.930;2022-12-07T21:42:14;9.23;;;4.45;;
75356;SDS011;63946;51.986;5.930;2022-12-07T21:44:43;8.95;;;5.00;;
75356;SDS011;63946;51.986;5.930;2022-12-07T21:47:11;8.07;;;4.32;;
75356;SDS011;63946;51.986;5.930;2022-12-07T21:49:40;8.40;;;4.10;;
75356;SDS011;63946;51.986;5.930;2022-12-07T21:52:09;9.30;;;3.92;;
75356;SDS011;63946;51.986;5.930;2022-12-07T21:54:38;8.38;;;3.83;;
75356;SDS011;63946;51.986;5.930;2022-12-07T21:57:09;5.55;;;3.88;;
75356;SDS011;63946;51.986;5.930;2022-12-07T21:59:38;6.28;;;3.83;;
75356;SDS011;63946;51.986;5.930;2022-12-07T22:02:09;6.07;;;4.15;;
75356;SDS011;63946;51.986;5.930;2022-12-07T22:04:44;7.50;;;3.58;;
75356;SDS011;63946;51.986;5.930;2022-12-07T22:07:13;9.43;;;4.75;;
75356;SDS011;63946;51.986;5.930;2022-12-07T22:09:42;6.75;;;4.15;;
75356;SDS011;63946;51.986;5.930;2022-12-07T22:12:13;10.90;;;4.82;;
75356;SDS011;63946;51.986;5.930;2022-12-07T22:14:42;7.80;;;5.38;;
75356;SDS011;63946;51.986;5.930;2022-12-07T22:17:23;7.57;;;4.50;;
75356;SDS011;63946;51.986;5.930;2022-12-07T22:19:52;8.15;;;4.43;;
75356;SDS011;63946;51.986;5.930;2022-12-07T22:22:21;6.22;;;4.22;;
75356;SDS011;63946;51.986;5.930;2022-12-07T22:24:50;5.32;;;3.47;;
75356;SDS011;63946;51.986;5.930;2022-12-07T22:27:19;6.25;;;4.32;;
75356;SDS011;63946;51.986;5.930;2022-12-07T22:29:47;6.90;;;3.53;;
75356;SDS011;63946;51.986;5.930;2022-12-07T22:32:16;7.90;;;4.22;;
75356;SDS011;63946;51.986;5.930;2022-12-07T22:34:45;5.60;;;3.70;;
75356;SDS011;63946;51.986;5.930;2022-12-07T22:37:14;6.85;;;4.38;;
75356;SDS011;63946;51.986;5.930;2022-12-07T22:39:54;5.90;;;4.13;;
75356;SDS011;63946;51.986;5.930;2022-12-07T22:42:23;7.65;;;4.85;;
75356;SDS011;63946;51.986;5.930;2022-12-07T22:44:51;7.38;;;4.07;;
75356;SDS011;63946;51.986;5.930;2022-12-07T22:47:20;6.80;;;4.70;;
75356;SDS011;63946;51.986;5.930;2022-12-07T22:52:44;9.05;;;5.88;;
75356;SDS011;63946;51.986;5.930;2022-12-07T22:55:20;10.75;;;6.18;;
75356;SDS011;63946;51.986;5.930;2022-12-07T22:57:49;8.07;;;5.10;;
75356;SDS011;63946;51.986;5.930;2022-12-07T23:00:19;8.05;;;5.70;;
75356;SDS011;63946;51.986;5.930;2022-12-07T23:02:47;8.20;;;5.97;;
75356;SDS011;63946;51.986;5.930;2022-12-07T23:05:23;6.53;;;4.88;;
75356;SDS011;63946;51.986;5.930;2022-12-07T23:07:52;8.95;;;6.50;;
75356;SDS011;63946;51.986;5.930;2022-12-07T23:10:24;8.77;;;5.28;;
75356;SDS011;63946;51.986;5.930;2022-12-07T23:12:54;7.70;;;4.75;;
75356;SDS011;63946;51.986;5.930;2022-12-07T23:19:00;6.57;;;4.65;;
75356;SDS011;63946;51.986;5.930;2022-12-07T23:21:29;9.85;;;5.45;;
75356;SDS011;63946;51.986;5.930;2022-12-07T23:26:58;7.75;;;5.25;;
75356;SDS011;63946;51.986;5.930;2022-12-07T23:29:27;7.18;;;5.80;;
75356;SDS011;63946;51.986;5.930;2022-12-07T23:31:55;6.65;;;5.10;;
75356;SDS011;63946;51.986;5.930;2022-12-07T23:34:25;6.13;;;4.90;;
75356;SDS011;63946;51.986;5.930;2022-12-07T23:36:54;5.90;;;5.07;;
75356;SDS011;63946;51.986;5.930;2022-12-07T23:39:23;7.38;;;5.35;;
75356;SDS011;63946;51.986;5.930;2022-12-07T23:41:52;6.45;;;4.97;;
75356;SDS011;63946;51.986;5.930;2022-12-07T23:44:20;6.80;;;4.72;;
75356;SDS011;63946;51.986;5.930;2022-12-07T23:46:49;6.75;;;6.07;;
75356;SDS011;63946;51.986;5.930;2022-12-07T23:49:18;8.52;;;5.88;;
75356;SDS011;63946;51.986;5.930;2022-12-07T23:51:47;6.68;;;3.97;;
75356;SDS011;63946;51.986;5.930;2022-12-07T23:54:15;5.72;;;4.90;;
75356;SDS011;63946;51.986;5.930;2022-12-07T23:56:44;6.47;;;4.90;;
75356;SDS011;63946;51.986;5.930;2022-12-07T23:59:13;6.32;;;4.70;;
